createdAt,value
2019-01-12T00:01:07.493Z,6.40
2019-01-12T00:03:35.090Z,6.40
2019-01-12T00:06:03.017Z,6.40
2019-01-12T00:08:30.594Z,6.50
2019-01-12T00:10:58.197Z,6.50
2019-01-12T00:13:26.544Z,6.70
2019-01-12T00:15:54.114Z,6.70
2019-01-12T00:18:21.713Z,6.70
2019-01-12T00:20:49.281Z,6.70
2019-01-12T00:23:16.892Z,6.70
2019-01-12T00:25:44.455Z,6.60
2019-01-12T00:28:12.031Z,6.60
2019-01-12T00:30:40.396Z,6.80
2019-01-12T00:33:07.968Z,6.80
2019-01-12T00:35:35.897Z,7.00
2019-01-12T00:38:03.469Z,7.10
2019-01-12T00:40:31.037Z,7.10
2019-01-12T00:42:58.937Z,7.10
2019-01-12T00:45:27.274Z,7.10
2019-01-12T00:47:54.881Z,7.10
2019-01-12T00:50:23.216Z,7.10
2019-01-12T00:52:50.784Z,7.10
2019-01-12T00:55:18.392Z,7.10
2019-01-12T00:57:45.964Z,7.10
2019-01-12T01:00:16.415Z,7.10
2019-01-12T01:02:43.984Z,7.10
2019-01-12T01:05:11.559Z,7.00
2019-01-12T01:07:39.163Z,7.00
2019-01-12T01:10:10.636Z,6.90
2019-01-12T01:12:38.244Z,7.00
2019-01-12T01:15:05.824Z,6.90
2019-01-12T01:17:33.394Z,6.90
2019-01-12T01:20:01.019Z,6.90
2019-01-12T01:22:28.977Z,6.90
2019-01-12T01:24:56.593Z,6.90
2019-01-12T01:27:24.932Z,6.90
2019-01-12T01:29:52.499Z,6.90
2019-01-12T01:32:20.579Z,6.90
2019-01-12T01:34:48.144Z,7.00
2019-01-12T01:37:15.781Z,7.00
2019-01-12T01:39:43.351Z,7.00
2019-01-12T01:42:10.920Z,7.00
2019-01-12T01:44:38.512Z,7.00
2019-01-12T01:47:06.847Z,6.90
2019-01-12T01:49:34.456Z,6.90
2019-01-12T01:52:02.031Z,6.90
2019-01-12T01:54:29.606Z,6.90
2019-01-12T01:56:57.201Z,6.90
2019-01-12T01:59:24.778Z,6.90
2019-01-12T02:01:52.380Z,6.90
2019-01-12T02:04:19.967Z,6.90
2019-01-12T02:06:47.538Z,6.90
2019-01-12T02:09:15.130Z,6.90
2019-01-12T02:11:42.694Z,6.90
2019-01-12T02:14:10.743Z,6.90
2019-01-12T02:16:38.313Z,6.80
2019-01-12T02:19:05.880Z,6.80
2019-01-12T02:21:33.473Z,6.90
2019-01-12T02:24:01.050Z,6.90
2019-01-12T02:26:28.657Z,7.00
2019-01-12T02:28:56.229Z,7.00
2019-01-12T02:31:23.814Z,7.00
2019-01-12T02:33:52.191Z,7.00
2019-01-12T02:36:20.538Z,7.00
2019-01-12T02:38:48.148Z,7.00
2019-01-12T02:41:15.709Z,6.90
2019-01-12T02:43:43.278Z,6.90
2019-01-12T02:46:10.867Z,6.90
2019-01-12T02:48:38.440Z,6.90
2019-01-12T02:51:06.054Z,6.80
2019-01-12T02:53:33.633Z,6.70
2019-01-12T02:56:01.203Z,6.80
2019-01-12T02:58:28.801Z,6.80
2019-01-12T03:00:56.388Z,6.70
2019-01-12T03:03:23.981Z,6.70
2019-01-12T03:05:51.553Z,6.60
2019-01-12T03:08:19.123Z,6.60
2019-01-12T03:10:46.716Z,6.60
2019-01-12T03:13:14.286Z,6.50
2019-01-12T03:15:42.657Z,6.50
2019-01-12T03:18:10.219Z,6.40
2019-01-12T03:20:37.783Z,6.40
2019-01-12T03:23:05.611Z,6.40
2019-01-12T03:25:33.194Z,6.40
2019-01-12T03:28:00.814Z,6.40
2019-01-12T03:30:28.403Z,6.40
2019-01-12T03:32:55.959Z,6.40
2019-01-12T03:35:23.539Z,6.30
2019-01-12T03:37:51.113Z,6.40
2019-01-12T03:40:18.720Z,6.40
2019-01-12T03:42:46.285Z,6.50
2019-01-12T03:45:13.859Z,6.60
2019-01-12T03:47:41.446Z,6.50
2019-01-12T03:50:09.020Z,6.60
2019-01-12T03:52:36.605Z,6.60
2019-01-12T03:55:04.977Z,6.60
2019-01-12T03:57:33.316Z,6.60
2019-01-12T04:00:00.890Z,6.60
2019-01-12T04:02:28.491Z,6.50
2019-01-12T04:04:56.841Z,6.50
2019-01-12T04:07:24.418Z,6.50
2019-01-12T04:09:52.807Z,6.50
2019-01-12T04:12:21.153Z,6.50
2019-01-12T04:14:48.725Z,6.50
2019-01-12T04:17:16.318Z,6.50
2019-01-12T04:19:43.889Z,6.60
2019-01-12T04:22:11.492Z,6.60
2019-01-12T04:24:39.060Z,6.50
2019-01-12T04:27:06.622Z,6.50
2019-01-12T04:29:34.783Z,6.40
2019-01-12T04:32:02.353Z,6.40
2019-01-12T04:34:29.943Z,6.40
2019-01-12T04:36:58.300Z,6.50
2019-01-12T04:39:25.869Z,6.50
2019-01-12T04:41:53.625Z,6.50
2019-01-12T04:44:21.204Z,6.50
2019-01-12T04:46:48.829Z,6.60
2019-01-12T04:49:16.402Z,6.60
2019-01-12T04:51:43.975Z,6.50
2019-01-12T04:54:11.567Z,6.50
2019-01-12T04:56:39.906Z,6.50
2019-01-12T04:59:07.511Z,6.50
2019-01-12T05:01:35.844Z,6.60
2019-01-12T05:04:03.413Z,6.60
2019-01-12T05:06:31.009Z,6.60
2019-01-12T05:08:58.584Z,6.60
2019-01-12T05:11:26.184Z,6.50
2019-01-12T05:13:53.752Z,6.40
2019-01-12T05:16:21.328Z,6.40
2019-01-12T05:18:48.922Z,6.30
2019-01-12T05:21:17.252Z,6.30
2019-01-12T05:23:44.865Z,6.30
2019-01-12T05:26:13.213Z,6.20
2019-01-12T05:28:40.776Z,6.20
2019-01-12T05:31:08.365Z,6.20
2019-01-12T05:33:36.705Z,6.50
2019-01-12T05:36:04.306Z,6.50
2019-01-12T05:38:32.640Z,6.50
2019-01-12T05:41:00.209Z,6.50
2019-01-12T05:43:27.813Z,6.50
2019-01-12T05:45:55.411Z,6.60
2019-01-12T05:48:23.011Z,6.60
2019-01-12T05:50:50.582Z,6.60
2019-01-12T05:53:18.926Z,6.40
2019-01-12T05:55:46.517Z,6.40
2019-01-12T05:58:14.092Z,6.40
2019-01-12T06:00:41.706Z,6.30
2019-01-12T06:03:09.281Z,6.30
2019-01-12T06:05:36.852Z,6.30
2019-01-12T06:08:04.800Z,6.30
2019-01-12T06:10:32.376Z,6.40
2019-01-12T06:12:59.981Z,6.60
2019-01-12T06:15:27.553Z,6.60
2019-01-12T06:17:55.119Z,6.70
2019-01-12T06:20:22.718Z,6.70
2019-01-12T06:22:50.300Z,6.60
2019-01-12T06:25:17.924Z,6.60
2019-01-12T06:27:45.497Z,6.50
2019-01-12T06:30:15.525Z,6.70
2019-01-12T06:32:43.127Z,6.70
2019-01-12T06:35:11.465Z,6.60
2019-01-12T06:37:39.106Z,6.60
2019-01-12T06:40:07.412Z,6.50
2019-01-12T06:42:34.984Z,6.50
2019-01-12T06:45:02.588Z,6.50
2019-01-12T06:47:30.163Z,6.70
2019-01-12T06:49:57.773Z,6.70
2019-01-12T06:52:25.346Z,6.70
2019-01-12T06:54:53.691Z,6.60
2019-01-12T06:57:21.297Z,6.60
2019-01-12T06:59:49.640Z,6.50
2019-01-12T07:02:17.252Z,6.50
2019-01-12T07:04:45.357Z,6.60
2019-01-12T07:07:12.927Z,6.60
2019-01-12T07:09:40.527Z,6.70
2019-01-12T07:12:08.871Z,6.80
2019-01-12T07:14:36.474Z,6.80
2019-01-12T07:17:04.817Z,6.70
2019-01-12T07:19:32.388Z,6.70
2019-01-12T07:21:59.988Z,6.70
2019-01-12T07:24:27.588Z,6.60
2019-01-12T07:26:55.203Z,6.70
2019-01-12T07:29:23.549Z,6.70
2019-01-12T07:31:51.126Z,6.70
2019-01-12T07:34:18.723Z,6.60
2019-01-12T07:36:46.337Z,6.60
2019-01-12T07:39:13.933Z,6.60
2019-01-12T07:41:41.506Z,6.50
2019-01-12T07:44:09.083Z,6.50
2019-01-12T07:46:36.683Z,6.50
2019-01-12T07:49:04.281Z,6.40
2019-01-12T07:51:32.436Z,6.40
2019-01-12T07:54:00.013Z,6.50
2019-01-12T07:56:27.607Z,6.50
2019-01-12T07:58:55.213Z,6.50
2019-01-12T08:01:22.782Z,6.50
2019-01-12T08:03:50.680Z,6.50
2019-01-12T08:06:18.257Z,6.50
2019-01-12T08:08:45.832Z,6.50
2019-01-12T08:11:13.430Z,6.50
2019-01-12T08:13:41.001Z,6.50
2019-01-12T08:16:09.384Z,6.50
2019-01-12T08:18:37.730Z,6.50
2019-01-12T08:21:05.305Z,6.50
2019-01-12T08:23:32.920Z,6.50
2019-01-12T08:26:00.498Z,6.60
2019-01-12T08:28:28.678Z,6.80
2019-01-12T08:30:56.262Z,6.80
2019-01-12T08:33:23.831Z,6.80
2019-01-12T08:35:51.440Z,6.70
2019-01-12T08:38:19.023Z,6.80
2019-01-12T08:40:46.639Z,6.80
2019-01-12T08:43:14.970Z,6.70
2019-01-12T08:45:42.546Z,6.70
2019-01-12T08:48:10.153Z,6.60
2019-01-12T08:50:37.734Z,6.60
2019-01-12T08:53:05.374Z,6.60
2019-01-12T08:55:32.956Z,6.60
2019-01-12T08:58:00.536Z,6.60
2019-01-12T09:00:28.172Z,6.60
2019-01-12T09:02:55.733Z,6.60
2019-01-12T09:05:23.309Z,6.60
2019-01-12T09:07:50.909Z,6.60
2019-01-12T09:10:19.705Z,6.60
2019-01-12T09:12:46.840Z,6.70
2019-01-12T09:15:14.485Z,6.70
2019-01-12T09:17:42.051Z,6.70
2019-01-12T09:20:09.634Z,6.90
2019-01-12T09:22:37.241Z,6.90
2019-01-12T09:25:04.823Z,6.80
2019-01-12T09:27:32.415Z,6.80
2019-01-12T09:30:00.013Z,6.80
2019-01-12T09:32:28.352Z,6.70
2019-01-12T09:34:55.985Z,6.70
2019-01-12T09:37:23.602Z,6.70
2019-01-12T09:39:54.022Z,6.70
2019-01-12T09:42:21.620Z,6.70
2019-01-12T09:44:49.192Z,6.60
2019-01-12T09:47:16.801Z,6.70
2019-01-12T09:49:44.395Z,6.70
2019-01-12T09:52:11.983Z,6.60
2019-01-12T09:54:39.589Z,6.70
2019-01-12T09:57:07.166Z,6.70
2019-01-12T09:59:35.540Z,6.60
2019-01-12T10:02:03.885Z,6.60
2019-01-12T10:04:31.465Z,6.60
2019-01-12T10:06:59.069Z,6.60
2019-01-12T10:09:26.648Z,6.60
2019-01-12T10:11:54.309Z,6.60
2019-01-12T10:14:22.622Z,6.60
2019-01-12T10:16:50.212Z,6.60
2019-01-12T10:19:18.582Z,6.80
2019-01-12T10:21:46.183Z,6.80
2019-01-12T10:24:14.100Z,6.80
2019-01-12T10:26:41.667Z,6.90
2019-01-12T10:29:09.249Z,6.90
2019-01-12T10:31:37.622Z,7.20
2019-01-12T10:34:05.213Z,7.20
2019-01-12T10:36:32.816Z,7.20
2019-01-12T10:39:00.384Z,7.20
2019-01-12T10:41:27.959Z,7.20
2019-01-12T10:43:55.581Z,7.30
2019-01-12T10:46:23.163Z,7.30
2019-01-12T10:48:50.791Z,7.30
2019-01-12T10:51:18.379Z,7.30
2019-01-12T10:53:45.962Z,7.30
2019-01-12T10:56:13.558Z,7.30
2019-01-12T10:58:41.902Z,7.30
2019-01-12T11:01:09.586Z,7.30
2019-01-12T11:03:37.122Z,7.30
2019-01-12T11:06:04.725Z,7.40
2019-01-12T11:08:32.319Z,7.40
2019-01-12T11:10:59.910Z,7.30
2019-01-12T11:13:27.546Z,7.30
2019-01-12T11:15:55.127Z,7.20
2019-01-12T11:18:22.706Z,7.10
2019-01-12T11:20:50.310Z,7.10
2019-01-12T11:23:17.905Z,7.10
2019-01-12T11:25:45.528Z,7.00
2019-01-12T11:28:13.103Z,6.90
2019-01-12T11:30:40.692Z,6.90
2019-01-12T11:33:08.295Z,6.90
2019-01-12T11:35:35.881Z,6.90
2019-01-12T11:38:03.503Z,6.80
2019-01-12T11:40:31.103Z,6.80
2019-01-12T11:42:58.683Z,6.80
2019-01-12T11:45:26.291Z,6.80
2019-01-12T11:47:53.871Z,6.80
2019-01-12T11:50:22.251Z,7.00
2019-01-12T11:52:50.637Z,7.00
2019-01-12T11:55:18.173Z,7.00
2019-01-12T11:57:45.771Z,6.90
2019-01-12T12:00:13.341Z,6.90
2019-01-12T12:02:40.976Z,6.90
2019-01-12T12:05:09.318Z,6.80
2019-01-12T12:07:36.892Z,6.80
2019-01-12T12:10:04.489Z,6.80
2019-01-12T12:12:32.066Z,6.80
2019-01-12T12:14:59.712Z,6.90
2019-01-12T12:17:27.247Z,7.00
2019-01-12T12:19:57.246Z,7.00
2019-01-12T12:22:24.853Z,7.10
2019-01-12T12:24:52.442Z,7.10
2019-01-12T12:27:25.986Z,7.10
2019-01-12T12:29:47.617Z,7.10
2019-01-12T12:32:16.682Z,7.10
2019-01-12T12:34:43.568Z,7.10
2019-01-12T12:37:11.919Z,7.20
2019-01-12T12:39:39.525Z,7.20
2019-01-12T12:42:07.108Z,7.20
2019-01-12T12:44:34.702Z,7.10
2019-01-12T12:47:02.305Z,7.10
2019-01-12T12:49:29.899Z,7.10
2019-01-12T12:51:57.505Z,7.00
2019-01-12T12:54:25.083Z,7.00
2019-01-12T12:56:53.431Z,7.10
2019-01-12T12:59:21.019Z,7.00
2019-01-12T13:01:49.362Z,7.10
2019-01-12T13:04:16.976Z,7.10
2019-01-12T13:06:44.555Z,7.10
2019-01-12T13:09:12.141Z,7.20
2019-01-12T13:11:39.749Z,7.30
2019-01-12T13:14:08.098Z,7.30
2019-01-12T13:16:35.711Z,7.30
2019-01-12T13:19:03.286Z,7.20
2019-01-12T13:21:30.858Z,7.20
2019-01-12T13:23:58.457Z,7.20
2019-01-12T13:26:26.027Z,7.20
2019-01-12T13:28:54.400Z,7.10
2019-01-12T13:31:21.975Z,7.10
2019-01-12T13:33:50.313Z,7.00
2019-01-12T13:36:23.604Z,7.00
2019-01-12T13:38:51.155Z,6.90
2019-01-12T13:41:18.764Z,6.90
2019-01-12T13:43:47.112Z,6.80
2019-01-12T13:46:14.685Z,6.80
2019-01-12T13:48:42.289Z,6.80
2019-01-12T13:51:09.866Z,6.80
2019-01-12T13:53:37.459Z,6.80
2019-01-12T13:56:05.107Z,6.80
2019-01-12T13:58:35.505Z,6.80
2019-01-12T14:01:03.131Z,6.80
2019-01-12T14:03:31.022Z,6.80
2019-01-12T14:05:58.314Z,6.90
2019-01-12T14:08:25.909Z,7.00
2019-01-12T14:10:53.530Z,7.00
2019-01-12T14:13:21.110Z,7.00
2019-01-12T14:15:48.689Z,7.10
2019-01-12T14:18:22.449Z,7.20
2019-01-12T14:20:43.901Z,7.30
2019-01-12T14:23:11.481Z,7.30
2019-01-12T14:25:39.100Z,7.30
2019-01-12T14:28:06.679Z,7.30
2019-01-12T14:30:34.278Z,7.20
2019-01-12T14:33:01.871Z,7.20
2019-01-12T14:35:29.439Z,7.10
2019-01-12T14:37:57.069Z,7.10
2019-01-12T14:40:24.635Z,7.10
2019-01-12T14:42:52.995Z,7.00
2019-01-12T14:45:23.571Z,7.00
2019-01-12T14:47:51.161Z,7.00
2019-01-12T14:50:19.170Z,7.00
2019-01-12T14:52:46.757Z,7.00
2019-01-12T14:55:17.323Z,7.00
2019-01-12T14:57:44.926Z,7.00
2019-01-12T15:00:18.350Z,7.00
2019-01-12T15:02:46.707Z,7.00
2019-01-12T15:05:14.403Z,6.90
2019-01-12T15:07:41.991Z,7.00
2019-01-12T15:10:09.581Z,6.90
2019-01-12T15:12:37.145Z,6.90
2019-01-12T15:15:04.764Z,6.90
2019-01-12T15:17:32.327Z,6.90
2019-01-12T15:19:59.901Z,7.00
2019-01-12T15:22:27.526Z,7.00
2019-01-12T15:24:55.863Z,7.00
2019-01-12T15:27:23.435Z,7.00
2019-01-12T15:29:51.075Z,7.00
2019-01-12T15:32:18.650Z,7.00
2019-01-12T15:34:46.225Z,7.10
2019-01-12T15:37:13.826Z,7.10
2019-01-12T15:39:41.396Z,7.10
2019-01-12T15:42:09.091Z,7.10
2019-01-12T15:44:36.654Z,7.10
2019-01-12T15:47:04.219Z,7.10
2019-01-12T15:49:31.811Z,7.20
2019-01-12T15:51:59.375Z,7.20
2019-01-12T15:54:27.759Z,7.30
2019-01-12T15:56:56.109Z,7.30
2019-01-12T15:59:23.684Z,7.30
2019-01-12T16:01:51.319Z,7.20
2019-01-12T16:04:18.888Z,7.20
2019-01-12T16:06:46.459Z,7.20
2019-01-12T16:09:14.074Z,7.10
2019-01-12T16:11:41.677Z,7.10
2019-01-12T16:14:09.292Z,7.30
2019-01-12T16:16:37.623Z,7.40
2019-01-12T16:19:05.191Z,7.40
2019-01-12T16:21:32.787Z,7.40
2019-01-12T16:24:00.380Z,7.40
2019-01-12T16:26:27.956Z,7.50
2019-01-12T16:28:55.580Z,7.50
2019-01-12T16:31:23.142Z,7.40
2019-01-12T16:33:50.711Z,7.40
2019-01-12T16:36:19.202Z,7.50
2019-01-12T16:38:46.783Z,7.50
2019-01-12T16:41:14.354Z,7.40
2019-01-12T16:43:41.984Z,7.40
2019-01-12T16:46:09.557Z,7.40
2019-01-12T16:48:37.131Z,7.50
2019-01-12T16:51:04.753Z,7.50
2019-01-12T16:53:32.333Z,7.50
2019-01-12T16:55:59.910Z,7.50
2019-01-12T16:58:30.689Z,7.70
2019-01-12T17:00:55.859Z,7.60
2019-01-12T17:03:23.440Z,7.60
2019-01-12T17:05:51.861Z,7.50
2019-01-12T17:08:19.429Z,7.50
2019-01-12T17:10:47.006Z,7.40
2019-01-12T17:13:14.622Z,7.40
2019-01-12T17:15:42.967Z,7.40
2019-01-12T17:18:10.544Z,7.40
2019-01-12T17:20:38.147Z,7.40
2019-01-12T17:23:05.718Z,7.50
2019-01-12T17:25:33.324Z,7.60
2019-01-12T17:28:00.899Z,7.60
2019-01-12T17:30:28.472Z,7.60
2019-01-12T17:32:56.108Z,7.50
2019-01-12T17:35:24.140Z,7.50
2019-01-12T17:37:51.713Z,7.40
2019-01-12T17:40:19.325Z,7.50
2019-01-12T17:42:47.661Z,7.60
2019-01-12T17:45:15.249Z,7.60
2019-01-12T17:47:42.844Z,7.70
2019-01-12T17:50:13.089Z,7.60
2019-01-12T17:52:40.660Z,7.70
2019-01-12T17:55:12.434Z,7.70
2019-01-12T17:57:39.634Z,7.70
2019-01-12T18:00:07.986Z,7.60
2019-01-12T18:02:36.137Z,7.60
2019-01-12T18:05:03.711Z,7.70
2019-01-12T18:07:31.275Z,7.70
2019-01-12T18:09:59.655Z,7.60
2019-01-12T18:12:27.227Z,7.60
2019-01-12T18:14:54.843Z,7.70
2019-01-12T18:17:22.403Z,7.80
2019-01-12T18:19:49.972Z,7.90
2019-01-12T18:22:17.605Z,7.90
2019-01-12T18:24:45.159Z,8.00
2019-01-12T18:27:13.503Z,7.90
2019-01-12T18:29:41.079Z,7.90
2019-01-12T18:32:08.699Z,7.90
2019-01-12T18:34:36.276Z,7.90
2019-01-12T18:37:03.844Z,7.80
2019-01-12T18:39:31.461Z,7.80
2019-01-12T18:41:59.030Z,7.70
2019-01-12T18:44:26.640Z,7.80
2019-01-12T18:46:54.979Z,7.80
2019-01-12T18:49:22.552Z,7.80
2019-01-12T18:51:50.123Z,7.80
2019-01-12T18:54:17.734Z,7.80
2019-01-12T18:56:46.093Z,7.70
2019-01-12T18:59:13.643Z,7.70
2019-01-12T19:01:42.321Z,7.70
2019-01-12T19:04:09.895Z,7.70
2019-01-12T19:06:37.458Z,7.70
2019-01-12T19:09:05.101Z,7.70
2019-01-12T19:11:32.672Z,7.70
2019-01-12T19:14:00.238Z,7.70
2019-01-12T19:16:28.485Z,7.70
2019-01-12T19:18:55.989Z,7.70
2019-01-12T19:21:23.718Z,7.70
2019-01-12T19:23:51.303Z,7.80
2019-01-12T19:26:18.882Z,7.90
2019-01-12T19:28:46.577Z,7.80
2019-01-12T19:31:14.108Z,7.80
2019-01-12T19:33:41.681Z,7.80
2019-01-12T19:36:09.302Z,7.80
2019-01-12T19:38:36.887Z,7.80
2019-01-12T19:41:04.454Z,7.80
2019-01-12T19:43:32.052Z,7.80
2019-01-12T19:45:59.616Z,7.80
2019-01-12T19:48:27.234Z,7.80
2019-01-12T19:50:54.809Z,7.80
2019-01-12T19:53:23.151Z,7.80
2019-01-12T19:55:50.773Z,7.80
2019-01-12T19:58:18.344Z,7.80
2019-01-12T20:00:45.914Z,7.90
2019-01-12T20:03:13.528Z,7.90
2019-01-12T20:05:41.098Z,7.90
2019-01-12T20:08:09.436Z,7.90
2019-01-12T20:10:37.046Z,7.90
2019-01-12T20:13:05.382Z,7.90
2019-01-12T20:15:32.957Z,7.90
2019-01-12T20:18:00.794Z,7.90
2019-01-12T20:20:29.085Z,7.90
2019-01-12T20:22:56.660Z,7.90
2019-01-12T20:25:25.766Z,8.00
2019-01-12T20:27:53.338Z,8.00
2019-01-12T20:30:26.483Z,8.00
2019-01-12T20:32:56.867Z,7.90
2019-01-12T20:35:30.920Z,7.90
2019-01-12T20:38:02.403Z,8.00
2019-01-12T20:40:35.400Z,7.90
2019-01-12T20:43:20.877Z,8.00
2019-01-12T20:46:03.402Z,8.00
2019-01-12T20:48:52.173Z,8.10
2019-01-12T20:51:44.727Z,8.20
2019-01-12T20:54:31.050Z,8.10
2019-01-12T20:57:07.852Z,8.10
2019-01-12T20:59:49.976Z,8.10
2019-01-12T21:02:17.548Z,8.10
2019-01-12T21:04:47.594Z,8.10
2019-01-12T21:07:27.360Z,8.10
2019-01-12T21:10:15.581Z,8.20
2019-01-12T21:13:08.058Z,8.20
2019-01-12T21:15:35.647Z,8.20
2019-01-12T21:18:03.220Z,8.20
2019-01-12T21:20:32.032Z,8.20
2019-01-12T21:22:59.603Z,8.10
2019-01-12T21:25:27.939Z,8.30
2019-01-12T21:27:55.531Z,8.20
2019-01-12T21:30:23.877Z,8.30
2019-01-12T21:32:51.754Z,8.30
2019-01-12T21:35:19.572Z,8.30
2019-01-12T21:37:47.148Z,8.30
2019-01-12T21:40:14.749Z,8.20
2019-01-12T21:42:42.316Z,8.20
2019-01-12T21:45:09.927Z,8.20
2019-01-12T21:47:37.496Z,8.20
2019-01-12T21:50:05.113Z,8.10
2019-01-12T21:52:32.673Z,8.10
2019-01-12T21:55:00.291Z,8.10
2019-01-12T21:57:27.863Z,8.10
2019-01-12T21:59:55.437Z,8.10
2019-01-12T22:02:23.930Z,8.10
2019-01-12T22:04:51.507Z,8.10
2019-01-12T22:07:19.076Z,8.20
2019-01-12T22:09:47.447Z,8.30
2019-01-12T22:12:15.795Z,8.30
2019-01-12T22:14:43.428Z,8.20
2019-01-12T22:17:11.027Z,8.20
2019-01-12T22:19:38.563Z,8.20
2019-01-12T22:22:06.169Z,8.20
2019-01-12T22:24:33.839Z,8.10
2019-01-12T22:27:01.585Z,8.10
2019-01-12T22:29:29.312Z,8.10
2019-01-12T22:31:57.680Z,8.10
2019-01-12T22:34:25.441Z,8.10
2019-01-12T22:36:53.084Z,8.10
2019-01-12T22:39:20.623Z,8.10
2019-01-12T22:41:48.304Z,8.10
2019-01-12T22:44:15.867Z,8.20
2019-01-12T22:46:44.097Z,8.30
2019-01-12T22:49:11.696Z,8.30
2019-01-12T22:51:39.278Z,8.30
2019-01-12T22:54:07.662Z,8.20
2019-01-12T22:56:35.242Z,8.20
2019-01-12T22:59:02.933Z,8.20
2019-01-12T23:01:32.194Z,8.20
2019-01-12T23:03:59.805Z,8.10
2019-01-12T23:06:27.388Z,8.10
2019-01-12T23:08:55.067Z,8.10
2019-01-12T23:11:22.651Z,8.10
2019-01-12T23:13:50.273Z,8.10
2019-01-12T23:16:17.869Z,8.10
2019-01-12T23:18:45.457Z,8.10
2019-01-12T23:21:13.065Z,8.10
2019-01-12T23:23:40.645Z,8.10
2019-01-12T23:26:08.279Z,8.10
2019-01-12T23:28:35.870Z,8.10
2019-01-12T23:31:03.487Z,8.10
2019-01-12T23:33:31.117Z,8.20
2019-01-12T23:35:58.702Z,8.30
2019-01-12T23:38:26.702Z,8.20
2019-01-12T23:40:54.288Z,8.20
2019-01-12T23:43:21.953Z,8.20
2019-01-12T23:45:49.527Z,8.10
2019-01-12T23:48:17.106Z,8.10
2019-01-12T23:50:44.760Z,8.20
2019-01-12T23:53:12.362Z,8.20
2019-01-12T23:55:39.948Z,8.20
2019-01-12T23:58:08.327Z,8.10
